Time;durP1;ratioP1;P1;durP2;ratioP2;P2;SDS_P1;SDS_P2;PMS_P1;PMS_P2;Temp;Humidity;BMP_temperature;BMP_pressure;BME280_temperature;BME280_humidity;BME280_pressure;Samples;Min_cycle;Max_cycle;Signal;HPM_P1;HPM_P2
2020/12/06 00:00:27;;;;;;;27.97;25.13;;;;;;;1.62;91.25;99164.88;5050824;28;20206;-76
2020/12/06 00:02:53;;;;;;;29.23;24.90;;;;;;;1.60;91.30;99157.09;5050576;28;20199;-76
2020/12/06 00:05:19;;;;;;;30.10;27.00;;;;;;;1.51;91.67;99153.41;5050500;28;20175;-78
2020/12/06 00:07:45;;;;;;;31.67;28.33;;;;;;;1.49;91.93;99155.56;5049795;28;20186;-76
2020/12/06 00:10:17;;;;;;;30.40;27.27;;;;;;;1.56;91.83;99147.94;5050580;28;20831;-75
2020/12/06 00:12:43;;;;;;;28.87;25.40;;;;;;;1.53;91.90;99148.53;5050549;28;20175;-74
2020/12/06 00:15:09;;;;;;;27.67;24.73;;;;;;;1.74;91.72;99159.91;5050629;28;20979;-74
2020/12/06 00:17:34;;;;;;;25.83;23.03;;;;;;;2.01;91.11;99175.50;5050329;28;20278;-74
2020/12/06 00:20:00;;;;;;;25.33;22.83;;;;;;;2.19;90.58;99180.16;5050487;28;20267;-74
2020/12/06 00:22:25;;;;;;;21.93;20.13;;;;;;;2.32;90.02;99186.75;5050282;28;20256;-73
2020/12/06 00:24:51;;;;;;;23.63;21.17;;;;;;;2.41;89.62;99195.78;5050531;28;20173;-76
2020/12/06 00:27:16;;;;;;;22.73;20.70;;;;;;;2.46;88.98;99206.53;5050493;28;20183;-74
2020/12/06 00:29:42;;;;;;;22.57;20.50;;;;;;;2.47;88.69;99208.13;5050515;28;20232;-74
2020/12/06 00:32:07;;;;;;;22.90;20.87;;;;;;;2.42;88.37;99221.66;5050440;28;20184;-74
2020/12/06 00:34:33;;;;;;;23.07;21.00;;;;;;;2.35;88.28;99224.69;5050334;28;20190;-73
2020/12/06 00:36:58;;;;;;;22.43;20.40;;;;;;;2.37;88.71;99224.41;5050155;28;20179;-74
2020/12/06 00:39:23;;;;;;;23.73;21.23;;;;;;;2.17;89.18;99224.63;5050354;28;20184;-74
2020/12/06 00:41:49;;;;;;;24.67;22.40;;;;;;;1.93;90.04;99225.41;5050402;28;20230;-77
2020/12/06 00:44:14;;;;;;;26.90;23.73;;;;;;;1.72;91.12;99224.78;5050389;28;20183;-74
2020/12/06 00:46:39;;;;;;;28.00;25.07;;;;;;;1.63;91.13;99223.81;5050253;28;20386;-74
2020/12/06 00:49:05;;;;;;;28.73;25.73;;;;;;;1.61;91.62;99228.69;5050136;28;20171;-73
2020/12/06 00:51:30;;;;;;;28.37;24.80;;;;;;;1.65;91.95;99221.63;5050089;28;20175;-74
2020/12/06 00:53:56;;;;;;;27.70;24.97;;;;;;;1.73;91.69;99237.16;5065690;28;20541;-74
2020/12/06 00:56:21;;;;;;;26.33;23.73;;;;;;;2.01;91.81;99230.16;5053843;28;20171;-73
2020/12/06 00:58:48;;;;;;;25.60;22.93;;;;;;;2.17;91.29;99221.91;5054059;28;20248;-74
2020/12/06 01:01:18;;;;;;;25.00;22.70;;;;;;;2.04;90.92;99221.53;5054098;28;20194;-74
2020/12/06 01:03:43;;;;;;;25.03;22.53;;;;;;;2.26;90.69;99206.75;5053867;28;20203;-74
2020/12/06 01:06:16;;;;;;;25.10;22.60;;;;;;;2.36;90.20;99214.72;5053781;28;20171;-76
2020/12/06 01:08:42;;;;;;;23.93;21.73;;;;;;;2.56;89.89;99211.78;5053843;28;20179;-74
2020/12/06 01:11:13;;;;;;;25.13;22.77;;;;;;;2.14;89.45;99201.75;5054241;28;20175;-73
2020/12/06 01:13:39;;;;;;;26.57;23.80;;;;;;;1.86;90.27;99191.81;5053851;28;20182;-73
2020/12/06 01:16:05;;;;;;;25.47;23.03;;;;;;;1.79;90.67;99186.78;5053784;28;20186;-74
2020/12/06 01:18:30;;;;;;;26.90;24.10;;;;;;;1.92;90.88;99188.81;5053962;28;20187;-74
2020/12/06 01:20:56;;;;;;;24.90;22.50;;;;;;;1.98;90.57;99178.75;5053646;28;20182;-73
2020/12/06 01:23:22;;;;;;;26.03;23.30;;;;;;;1.76;90.85;99169.31;5053645;28;20214;-73
2020/12/06 01:25:47;;;;;;;26.43;23.37;;;;;;;1.83;90.99;99176.22;5053646;28;20633;-74
2020/12/06 01:28:13;;;;;;;25.20;22.67;;;;;;;1.76;91.42;99190.84;5053420;28;20183;-75
2020/12/06 01:30:38;;;;;;;24.60;22.13;;;;;;;1.84;91.25;99183.22;5053492;28;20207;-73
2020/12/06 01:33:03;;;;;;;26.83;24.13;;;;;;;1.77;91.24;99192.44;5053432;28;20264;-73
2020/12/06 01:35:29;;;;;;;25.33;22.83;;;;;;;1.94;91.07;99192.00;5053661;28;20182;-74
2020/12/06 01:37:54;;;;;;;24.07;21.60;;;;;;;2.09;90.90;99201.81;5035258;28;20182;-73
2020/12/06 01:40:19;;;;;;;25.37;22.70;;;;;;;1.87;90.89;99196.09;5053339;28;20178;-73
2020/12/06 01:42:45;;;;;;;27.43;24.63;;;;;;;1.67;91.53;99179.06;5053105;28;20209;-73
2020/12/06 01:45:10;;;;;;;27.00;24.17;;;;;;;1.65;91.57;99181.25;5053254;28;20179;-73
2020/12/06 01:47:35;;;;;;;26.67;23.20;;;;;;;1.74;92.01;99201.09;5053184;28;20580;-78
2020/12/06 01:50:01;;;;;;;25.13;22.57;;;;;;;1.98;91.49;99200.31;5053266;28;20202;-73
2020/12/06 01:52:29;;;;;;;23.70;21.63;;;;;;;2.05;91.25;99187.31;5053103;28;20179;-76
2020/12/06 01:54:55;;;;;;;25.93;23.13;;;;;;;1.87;91.53;99190.72;5053077;28;20175;-74
2020/12/06 01:57:20;;;;;;;26.03;23.53;;;;;;;1.84;91.84;99172.44;5052882;28;20177;-77
2020/12/06 01:59:45;;;;;;;28.47;25.47;;;;;;;1.64;92.60;99163.50;5052841;28;20536;-75
2020/12/06 02:02:13;;;;;;;34.03;27.13;;;;;;;1.55;93.14;99154.44;5052691;28;20195;-75
2020/12/06 02:04:39;;;;;;;37.70;28.67;;;;;;;1.49;93.45;99151.00;5052770;28;20301;-74
2020/12/06 02:07:04;;;;;;;34.30;29.00;;;;;;;1.50;93.85;99141.03;5052316;28;20550;-73
2020/12/06 02:09:30;;;;;;;31.83;26.60;;;;;;;1.56;93.75;99157.91;5052777;28;20181;-75
2020/12/06 02:11:57;;;;;;;35.50;27.20;;;;;;;1.68;93.85;99163.72;5052799;28;20631;-74
2020/12/06 02:14:23;;;;;;;36.60;27.37;;;;;;;1.71;93.83;99168.53;5052676;28;20976;-75
2020/12/06 02:16:55;;;;;;;33.83;26.43;;;;;;;1.73;93.68;99166.34;5052383;28;20430;-75
2020/12/06 02:19:21;;;;;;;32.30;26.77;;;;;;;1.72;93.43;99170.94;5052525;28;20553;-74
2020/12/06 02:21:47;;;;;;;31.70;26.37;;;;;;;1.67;93.66;99165.63;5052440;28;20171;-74
2020/12/06 02:24:15;;;;;;;32.47;26.83;;;;;;;1.71;93.73;99173.91;5052414;28;20781;-76
2020/12/06 02:26:46;;;;;;;33.63;26.90;;;;;;;1.72;93.67;99168.25;5052404;28;20533;-73
2020/12/06 02:29:12;;;;;;;29.43;26.23;;;;;;;1.75;93.60;99161.53;5052315;28;20426;-76
2020/12/06 02:31:38;;;;;;;34.67;27.17;;;;;;;1.95;93.63;99155.91;5052298;28;20430;-73
2020/12/06 02:34:07;;;;;;;28.57;25.00;;;;;;;1.95;93.07;99153.22;5052185;28;20179;-74
2020/12/06 02:36:33;;;;;;;34.37;25.40;;;;;;;2.19;93.08;99158.59;5052147;28;20179;-77
2020/12/06 02:38:59;;;;;;;26.47;23.87;;;;;;;2.42;92.71;99148.06;5052507;28;20445;-75
2020/12/06 02:41:37;;;;;;;29.50;24.37;;;;;;;2.57;91.79;99155.94;5052376;28;20481;-74
2020/12/06 02:44:04;;;;;;;25.67;22.57;;;;;;;2.45;91.15;99169.06;5052124;28;20909;-76
2020/12/06 02:46:30;;;;;;;27.47;24.37;;;;;;;2.05;91.69;99153.09;5051925;28;20184;-74
2020/12/06 02:48:55;;;;;;;29.47;25.60;;;;;;;1.86;92.57;99164.88;5051842;28;20183;-78
2020/12/06 02:51:20;;;;;;;32.40;26.77;;;;;;;1.80;92.91;99161.47;5051894;28;20185;-74
2020/12/06 02:53:46;;;;;;;34.13;27.17;;;;;;;1.70;93.54;99159.66;5051922;28;20542;-74
2020/12/06 02:56:11;;;;;;;36.13;29.27;;;;;;;1.65;93.72;99151.66;5051722;28;20206;-74
2020/12/06 02:58:36;;;;;;;44.50;29.53;;;;;;;1.66;93.98;99147.88;5051544;28;20214;-73
2020/12/06 03:01:02;;;;;;;40.57;30.07;;;;;;;1.61;94.13;99137.16;5051703;28;20263;-74
2020/12/06 03:03:27;;;;;;;37.23;28.57;;;;;;;1.70;94.19;99142.72;5051621;28;20516;-74
2020/12/06 03:05:53;;;;;;;40.10;29.50;;;;;;;1.73;94.19;99134.06;5033810;28;20191;-74
2020/12/06 03:08:18;;;;;;;40.57;28.27;;;;;;;1.76;94.02;99141.59;5051584;28;20179;-74
2020/12/06 03:10:43;;;;;;;38.20;28.50;;;;;;;1.71;94.41;99141.63;5051628;28;20175;-77
2020/12/06 03:13:08;;;;;;;37.70;29.60;;;;;;;1.69;94.35;99149.97;5051331;28;20734;-76
2020/12/06 03:15:34;;;;;;;38.50;28.30;;;;;;;1.90;94.01;99152.47;5051432;28;20179;-74
2020/12/06 03:17:59;;;;;;;37.90;29.13;;;;;;;1.81;93.74;99151.50;5050320;28;20197;-77
2020/12/06 03:20:24;;;;;;;44.93;30.80;;;;;;;1.75;93.95;99132.69;5051366;28;20167;-76
2020/12/06 03:22:50;;;;;;;41.93;29.67;;;;;;;1.70;94.03;99123.84;5051527;28;20531;-80
2020/12/06 03:25:15;;;;;;;47.07;31.90;;;;;;;1.68;93.82;99124.16;5051887;28;20638;-74
2020/12/06 03:27:41;;;;;;;48.03;31.93;;;;;;;1.72;93.95;99113.59;5050860;28;20384;-74
2020/12/06 03:30:06;;;;;;;45.30;30.57;;;;;;;1.89;93.92;99110.47;5051269;28;20198;-75
2020/12/06 03:32:31;;;;;;;43.10;30.13;;;;;;;2.00;93.66;99114.63;5033469;28;20546;-74
2020/12/06 03:34:57;;;;;;;46.57;29.37;;;;;;;2.08;93.13;99114.81;5051469;28;20205;-73
2020/12/06 03:37:22;;;;;;;32.93;27.40;;;;;;;2.10;92.68;99111.81;5051978;28;20260;-74
2020/12/06 03:39:47;;;;;;;43.63;28.93;;;;;;;2.11;92.56;99109.94;5051189;28;20187;-76
2020/12/06 03:42:13;;;;;;;45.67;29.60;;;;;;;1.93;92.67;99106.91;5050840;28;20203;-73
2020/12/06 03:44:41;;;;;;;45.13;29.27;;;;;;;1.94;92.57;99119.28;5050998;28;20176;-75
2020/12/06 03:47:06;;;;;;;41.87;30.10;;;;;;;1.99;92.65;99116.53;5050977;28;20171;-73
2020/12/06 03:49:32;;;;;;;41.73;30.87;;;;;;;1.92;92.61;99123.38;5050660;28;20422;-73
2020/12/06 03:51:57;;;;;;;40.90;28.73;;;;;;;2.13;92.26;99119.31;5050893;28;20183;-73
2020/12/06 03:54:23;;;;;;;37.50;28.00;;;;;;;2.25;92.00;99118.91;5050948;28;20179;-78
2020/12/06 03:56:48;;;;;;;44.73;31.20;;;;;;;2.17;92.03;99120.38;5050665;28;20553;-74
2020/12/06 03:59:13;;;;;;;45.47;29.60;;;;;;;2.05;92.52;99128.06;5050937;28;20174;-73
2020/12/06 04:01:39;;;;;;;43.60;29.47;;;;;;;2.02;92.58;99121.34;5050697;28;20167;-74
2020/12/06 04:04:04;;;;;;;39.60;29.57;;;;;;;1.96;92.99;99113.63;5050828;28;20178;-73
2020/12/06 04:06:29;;;;;;;40.73;29.67;;;;;;;1.91;93.03;99105.59;5050668;28;20175;-72
2020/12/06 04:08:55;;;;;;;46.43;31.37;;;;;;;1.86;93.29;99113.72;5050617;28;20531;-75
2020/12/06 04:11:20;;;;;;;48.13;31.23;;;;;;;1.88;93.34;99108.84;5050630;28;20419;-74
2020/12/06 04:13:46;;;;;;;47.83;31.27;;;;;;;1.88;93.41;99093.53;5050608;28;20635;-74
2020/12/06 04:16:11;;;;;;;46.23;30.30;;;;;;;2.14;93.31;99107.47;5050489;28;20699;-75
2020/12/06 04:18:36;;;;;;;39.03;29.07;;;;;;;2.27;93.21;99111.34;5050438;28;20550;-73
2020/12/06 04:21:02;;;;;;;43.47;31.23;;;;;;;2.24;92.83;99103.84;5050700;28;20224;-74
2020/12/06 04:23:28;;;;;;;44.17;30.13;;;;;;;2.15;92.63;99105.56;5050880;28;20215;-74
2020/12/06 04:25:54;;;;;;;41.20;28.70;;;;;;;2.18;92.30;99116.59;5050498;28;20179;-77
2020/12/06 04:28:20;;;;;;;38.93;29.03;;;;;;;2.24;92.15;99120.81;5051022;28;20174;-74
2020/12/06 04:30:45;;;;;;;39.23;28.37;;;;;;;2.35;92.01;99113.41;5054851;28;20529;-76
2020/12/06 04:33:10;;;;;;;35.67;27.63;;;;;;;2.39;91.83;99120.63;5054909;28;20175;-74
2020/12/06 04:35:36;;;;;;;39.20;29.13;;;;;;;2.25;91.66;99110.84;5054555;28;20184;-73
2020/12/06 04:38:01;;;;;;;36.27;28.60;;;;;;;2.37;91.57;99106.63;5054388;28;20246;-74
2020/12/06 04:40:26;;;;;;;35.60;27.93;;;;;;;2.57;91.45;99089.34;5054477;28;20175;-74
2020/12/06 04:42:52;;;;;;;31.57;25.83;;;;;;;2.44;91.22;99091.97;5054276;28;20221;-76
2020/12/06 04:45:17;;;;;;;33.23;26.57;;;;;;;2.38;91.12;99093.97;5054297;28;20259;-74
2020/12/06 04:47:42;;;;;;;33.57;26.70;;;;;;;2.28;91.39;99092.19;5054150;28;20186;-76
2020/12/06 04:50:14;;;;;;;39.43;28.67;;;;;;;2.22;91.93;99095.25;5054184;28;20174;-75
2020/12/06 04:52:43;;;;;;;42.67;28.90;;;;;;;2.02;92.53;99072.84;5054539;28;20179;-74
2020/12/06 04:55:12;;;;;;;46.63;30.00;;;;;;;2.00;93.17;99071.53;5054243;28;20432;-74
2020/12/06 04:57:39;;;;;;;46.17;31.20;;;;;;;1.95;93.60;99071.63;5054046;28;20424;-75
2020/12/06 05:00:09;;;;;;;55.70;31.47;;;;;;;1.93;93.89;99058.44;5054055;28;20416;-74
2020/12/06 05:02:38;;;;;;;46.07;29.20;;;;;;;2.00;93.86;99053.50;5054024;28;20244;-75
2020/12/06 05:05:04;;;;;;;43.07;28.77;;;;;;;2.11;93.74;99062.25;5054029;28;20406;-75
2020/12/06 05:07:31;;;;;;;45.83;29.17;;;;;;;2.37;93.40;99058.13;5053834;28;20220;-74
2020/12/06 05:09:56;;;;;;;44.20;29.97;;;;;;;2.25;92.93;99060.44;5053955;28;20258;-74
2020/12/06 05:12:22;;;;;;;48.97;31.33;;;;;;;2.23;92.99;99057.25;5053909;28;20322;-75
2020/12/06 05:14:48;;;;;;;48.37;30.40;;;;;;;2.27;92.62;99070.94;5053904;28;20482;-75
2020/12/06 05:17:14;;;;;;;40.90;30.30;;;;;;;2.51;92.67;99060.09;5053517;28;20191;-74
2020/12/06 05:19:39;;;;;;;35.30;27.97;;;;;;;2.61;92.30;99063.44;5053839;28;20178;-74
2020/12/06 05:22:05;;;;;;;37.67;28.00;;;;;;;2.66;92.07;99060.66;5053691;28;20666;-74
2020/12/06 05:24:30;;;;;;;36.33;26.37;;;;;;;2.78;91.91;99062.91;5053721;28;20175;-74
2020/12/06 05:26:55;;;;;;;34.07;26.77;;;;;;;2.58;91.47;99055.13;5055369;28;20178;-74
2020/12/06 05:29:21;;;;;;;34.23;25.63;;;;;;;2.47;91.67;99024.03;5054928;28;20191;-73
2020/12/06 05:31:46;;;;;;;41.87;28.27;;;;;;;2.45;91.81;99047.75;5053888;28;20179;-75
2020/12/06 05:34:12;;;;;;;39.57;27.33;;;;;;;2.75;91.63;99065.38;5053448;28;20171;-74
2020/12/06 05:36:46;;;;;;;35.53;26.57;;;;;;;2.69;91.49;99070.06;5053502;28;20179;-75
2020/12/06 05:39:11;;;;;;;37.90;27.47;;;;;;;2.56;91.35;99065.41;5053530;28;20645;-75
2020/12/06 05:41:37;;;;;;;40.27;29.40;;;;;;;2.23;92.27;99053.75;5052809;28;20258;-75
2020/12/06 05:44:06;;;;;;;43.97;29.00;;;;;;;2.23;92.95;99059.13;5053242;28;20245;-75
2020/12/06 05:46:36;;;;;;;42.07;28.37;;;;;;;2.46;92.79;99063.66;5053555;28;20167;-75
2020/12/06 05:49:05;;;;;;;49.40;31.37;;;;;;;2.07;93.38;99061.22;5053475;28;20175;-75
2020/12/06 05:51:31;;;;;;;53.00;32.00;;;;;;;1.96;93.98;99051.69;5053477;28;20504;-76
2020/12/06 05:53:57;;;;;;;50.03;32.00;;;;;;;2.11;93.87;99048.78;5053352;28;20266;-74
2020/12/06 05:56:23;;;;;;;47.67;30.17;;;;;;;2.26;93.71;99047.78;5052969;28;20171;-75
2020/12/06 05:58:50;;;;;;;41.30;28.40;;;;;;;2.50;93.30;99053.91;5052985;28;20174;-74
2020/12/06 06:01:17;;;;;;;44.37;28.83;;;;;;;2.24;93.30;99042.69;5035305;28;20577;-74
2020/12/06 06:03:50;;;;;;;46.30;30.87;;;;;;;2.33;93.35;99059.00;5052938;28;20302;-74
2020/12/06 06:06:21;;;;;;;45.53;28.83;;;;;;;2.43;93.33;99048.06;5052794;28;20175;-74
2020/12/06 06:08:49;;;;;;;42.93;28.03;;;;;;;2.69;92.41;99067.34;5052696;28;20622;-77
2020/12/06 06:11:20;;;;;;;33.83;27.23;;;;;;;2.49;92.42;99067.66;5052769;28;20179;-75
2020/12/06 06:13:54;;;;;;;43.17;29.93;;;;;;;2.33;92.18;99067.88;5052625;28;20167;-75
2020/12/06 06:16:22;;;;;;;42.97;29.03;;;;;;;2.33;92.49;99067.88;5052505;28;20267;-75
2020/12/06 06:18:49;;;;;;;47.83;30.13;;;;;;;2.20;92.73;99052.44;5034695;28;20209;-78
2020/12/06 06:21:21;;;;;;;48.53;30.93;;;;;;;2.04;93.33;99048.34;5052716;28;20262;-74
2020/12/06 06:23:48;;;;;;;57.43;31.30;;;;;;;2.02;93.71;99031.66;5052613;28;20210;-74
2020/12/06 06:26:17;;;;;;;50.67;31.57;;;;;;;2.15;93.75;99041.72;5052333;28;20418;-74
2020/12/06 06:28:44;;;;;;;50.50;31.17;;;;;;;2.00;93.76;99050.81;5052335;28;20457;-73
2020/12/06 06:31:11;;;;;;;56.70;33.60;;;;;;;1.92;94.18;99040.69;5052247;28;20890;-76
2020/12/06 06:33:38;;;;;;;55.67;33.63;;;;;;;1.91;94.21;99038.28;5052273;28;20437;-75
2020/12/06 06:36:07;;;;;;;57.73;34.70;;;;;;;1.87;94.63;99035.34;5052242;28;20221;-74
2020/12/06 06:38:42;;;;;;;71.03;34.73;;;;;;;1.93;94.82;99047.69;5034320;28;20429;-74
2020/12/06 06:41:08;;;;;;;55.60;35.10;;;;;;;1.89;94.93;99043.16;5052222;28;20421;-75
2020/12/06 06:43:35;;;;;;;63.97;35.30;;;;;;;1.85;94.90;99039.41;5052198;28;20214;-75
2020/12/06 06:46:17;;;;;;;66.23;35.97;;;;;;;1.84;95.07;99045.91;5052502;28;20449;-74
2020/12/06 06:48:47;;;;;;;68.43;35.00;;;;;;;1.86;95.48;99043.72;5052068;28;20440;-75
2020/12/06 06:51:21;;;;;;;60.47;33.93;;;;;;;1.87;95.30;99032.66;5052171;28;20438;-74
2020/12/06 06:53:47;;;;;;;67.07;36.27;;;;;;;1.89;95.18;99054.72;5051103;28;20425;-74
2020/12/06 06:56:18;;;;;;;56.13;33.07;;;;;;;2.08;95.22;99066.31;5051843;28;20422;-74
2020/12/06 06:58:46;;;;;;;52.57;33.73;;;;;;;2.11;94.57;99064.16;5051759;28;20449;-76
2020/12/06 07:01:15;;;;;;;59.80;34.37;;;;;;;1.93;94.98;99050.38;5051923;28;20179;-74
2020/12/06 07:03:59;;;;;;;65.93;37.67;;;;;;;1.87;95.11;99058.78;5051658;28;20944;-74
2020/12/06 07:06:47;;;;;;;65.33;36.87;;;;;;;1.79;95.46;99047.56;5051520;28;20541;-77
2020/12/06 07:09:21;;;;;;;70.03;38.73;;;;;;;1.81;95.81;99041.91;5051739;28;20426;-76
2020/12/06 07:11:48;;;;;;;75.27;38.40;;;;;;;1.79;95.63;99039.50;5033536;28;20425;-75
2020/12/06 07:14:14;;;;;;;81.10;39.43;;;;;;;1.76;95.70;99032.00;5051558;28;20496;-74
2020/12/06 07:16:39;;;;;;;75.50;38.73;;;;;;;1.86;95.88;99046.41;5051615;28;20417;-75
2020/12/06 07:19:05;;;;;;;67.43;37.43;;;;;;;1.81;95.53;99035.72;5051429;28;20171;-79
2020/12/06 07:21:35;;;;;;;70.07;38.97;;;;;;;1.83;95.89;99041.59;5051440;28;20541;-75
2020/12/06 07:24:02;;;;;;;69.63;36.97;;;;;;;1.85;95.86;99039.41;5051404;28;20195;-77
2020/12/06 07:26:28;;;;;;;84.47;41.00;;;;;;;1.80;95.94;99013.38;5051168;28;20426;-75
2020/12/06 07:28:54;;;;;;;70.63;39.47;;;;;;;1.84;95.66;99000.13;5051311;28;20786;-77
2020/12/06 07:31:20;;;;;;;73.10;38.37;;;;;;;1.82;95.80;98980.78;5051070;28;20247;-75
2020/12/06 07:33:45;;;;;;;74.47;39.37;;;;;;;1.77;95.82;98982.44;5051319;28;20512;-75
2020/12/06 07:36:11;;;;;;;75.60;39.27;;;;;;;1.77;95.92;98995.91;5051006;28;20220;-75
2020/12/06 07:38:36;;;;;;;73.10;37.37;;;;;;;1.81;95.82;98992.63;5051254;28;20176;-76
2020/12/06 07:41:03;;;;;;;69.80;37.97;;;;;;;1.73;95.91;99004.84;5033202;28;20249;-75
2020/12/06 07:43:32;;;;;;;70.57;38.87;;;;;;;1.68;96.37;99005.72;5051083;28;20199;-76
2020/12/06 07:46:20;;;;;;;66.97;37.93;;;;;;;1.72;95.69;99006.72;5050994;28;20418;-74
2020/12/06 07:48:46;;;;;;;83.07;42.73;;;;;;;1.69;95.73;99003.81;5050829;28;20390;-75
2020/12/06 07:51:11;;;;;;;70.57;39.67;;;;;;;1.71;95.79;99017.78;5051032;28;20467;-74
2020/12/06 07:53:50;;;;;;;79.60;41.00;;;;;;;1.76;95.94;99015.84;5050913;28;20680;-75
2020/12/06 07:56:21;;;;;;;69.93;41.53;;;;;;;1.77;95.41;99012.06;5050732;28;20170;-75
2020/12/06 07:59:05;;;;;;;79.03;41.27;;;;;;;1.74;95.09;98985.72;5050702;28;20421;-77
2020/12/06 08:01:30;;;;;;;78.60;41.93;;;;;;;1.75;95.31;98976.56;5050700;28;20414;-78
2020/12/06 08:03:56;;;;;;;80.20;42.43;;;;;;;1.82;95.27;98994.22;5050367;28;20476;-79
2020/12/06 08:06:26;;;;;;;77.87;43.27;;;;;;;1.80;94.78;98994.53;5051083;28;20194;-79
2020/12/06 08:08:56;;;;;;;67.67;38.53;;;;;;;1.79;95.32;98992.94;5050311;28;20207;-78
2020/12/06 08:11:28;;;;;;;76.93;42.17;;;;;;;1.81;95.48;99000.72;5050916;28;20430;-78
2020/12/06 08:13:53;;;;;;;70.97;38.67;;;;;;;1.85;95.18;99002.53;5050632;28;20425;-78
2020/12/06 08:16:19;;;;;;;68.53;39.50;;;;;;;1.79;95.24;98972.19;5050671;28;20597;-78
2020/12/06 08:18:45;;;;;;;70.13;40.47;;;;;;;1.77;95.10;98963.59;5050411;28;20222;-78
2020/12/06 08:21:10;;;;;;;72.40;40.33;;;;;;;1.74;94.65;98958.00;5050683;28;20179;-78
2020/12/06 08:23:37;;;;;;;76.67;42.83;;;;;;;1.75;95.05;98954.22;5050618;28;20199;-78
2020/12/06 08:26:03;;;;;;;76.50;41.83;;;;;;;1.78;95.20;98949.06;5050789;28;20172;-79
2020/12/06 08:28:29;;;;;;;71.77;39.33;;;;;;;1.79;95.05;98945.25;5050422;28;20505;-75
2020/12/06 08:30:55;;;;;;;68.47;40.57;;;;;;;1.76;95.03;98950.44;5050757;28;20420;-75
2020/12/06 08:33:25;;;;;;;72.13;41.13;;;;;;;1.75;94.66;98957.72;5050509;28;20419;-75
2020/12/06 08:35:56;;;;;;;74.60;41.60;;;;;;;1.77;94.71;98968.97;5050330;28;20183;-75
2020/12/06 08:38:24;;;;;;;73.10;37.93;;;;;;;1.79;94.58;98966.00;5050415;28;20410;-75
2020/12/06 08:41:06;;;;;;;69.93;38.50;;;;;;;1.85;94.69;98982.88;5050548;28;20516;-75
2020/12/06 08:43:51;;;;;;;70.73;38.90;;;;;;;1.87;94.82;98981.50;5050301;28;20474;-76
2020/12/06 08:46:18;;;;;;;76.47;39.13;;;;;;;1.89;94.66;98967.75;5050157;28;20414;-75
2020/12/06 08:48:46;;;;;;;64.53;37.10;;;;;;;1.93;94.61;98960.69;5032475;28;20421;-76
2020/12/06 08:51:33;;;;;;;67.97;38.87;;;;;;;1.91;94.44;98970.97;5050362;28;20448;-75
2020/12/06 08:54:01;;;;;;;64.67;40.27;;;;;;;1.89;94.21;98976.63;5050403;28;20420;-76
2020/12/06 08:56:30;;;;;;;68.67;39.13;;;;;;;1.93;94.72;98971.47;5050446;28;20418;-75
2020/12/06 08:58:59;;;;;;;66.10;38.50;;;;;;;1.96;94.29;98960.09;5050226;28;20445;-75
2020/12/06 09:01:25;;;;;;;69.70;38.73;;;;;;;1.93;93.91;98966.09;5050355;28;20255;-75
2020/12/06 09:03:50;;;;;;;74.67;40.70;;;;;;;1.93;94.33;98963.38;5050435;28;20556;-75
2020/12/06 09:06:16;;;;;;;67.33;38.87;;;;;;;1.92;94.14;98957.22;5050193;28;20203;-75
2020/12/06 09:08:42;;;;;;;72.97;40.00;;;;;;;1.98;94.46;98963.31;5050005;28;20172;-75
2020/12/06 09:11:19;;;;;;;72.67;39.57;;;;;;;1.98;94.24;98960.63;5050103;28;20414;-75
2020/12/06 09:13:45;;;;;;;68.90;39.50;;;;;;;2.01;94.20;98962.72;5050039;28;20445;-75
2020/12/06 09:16:10;;;;;;;75.03;39.53;;;;;;;1.96;94.01;98957.41;5051839;28;20928;-75
2020/12/06 09:18:37;;;;;;;66.17;39.33;;;;;;;1.97;94.25;98965.19;5053699;28;20179;-78
2020/12/06 09:21:04;;;;;;;62.13;37.67;;;;;;;2.00;93.78;98971.91;5053882;28;20167;-75
2020/12/06 09:23:29;;;;;;;63.47;38.60;;;;;;;1.99;94.03;98973.00;5035963;28;20522;-75
2020/12/06 09:25:58;;;;;;;67.47;37.90;;;;;;;2.06;94.04;98990.41;5053524;28;20434;-74
2020/12/06 09:28:23;;;;;;;74.50;38.63;;;;;;;2.04;93.97;98997.97;5053569;28;20176;-75
2020/12/06 09:30:48;;;;;;;62.90;38.37;;;;;;;2.02;93.96;98978.59;5053862;28;20487;-75
2020/12/06 09:33:16;;;;;;;69.87;41.03;;;;;;;2.05;94.06;98974.53;5053336;28;20233;-74
2020/12/06 09:35:41;;;;;;;74.73;42.57;;;;;;;2.05;94.00;98977.22;5054600;28;20171;-75
2020/12/06 09:38:13;;;;;;;70.13;40.53;;;;;;;2.06;93.89;98962.66;5053779;28;20915;-78
2020/12/06 09:40:38;;;;;;;72.40;40.40;;;;;;;2.09;93.81;98978.25;5053497;28;20172;-78
2020/12/06 09:43:04;;;;;;;71.33;40.97;;;;;;;2.13;93.94;98975.75;5053198;28;20479;-79
2020/12/06 09:45:29;;;;;;;70.53;38.87;;;;;;;2.18;93.52;98973.81;5053666;28;20179;-77
2020/12/06 09:47:55;;;;;;;67.63;38.33;;;;;;;2.15;93.77;98977.06;5053209;28;20179;-76
2020/12/06 09:50:30;;;;;;;62.50;38.80;;;;;;;2.11;93.55;98976.06;5053476;28;20171;-76
2020/12/06 09:52:55;;;;;;;63.93;37.23;;;;;;;2.10;93.61;98969.06;5053281;28;20159;-78
2020/12/06 09:55:21;;;;;;;65.73;39.83;;;;;;;2.15;93.35;98963.59;5053157;28;20484;-78
2020/12/06 09:57:46;;;;;;;68.40;41.37;;;;;;;2.08;93.70;98957.78;5052937;28;20171;-78
2020/12/06 10:00:12;;;;;;;71.77;39.73;;;;;;;2.14;93.77;98962.00;5053050;28;20206;-78
2020/12/06 10:02:37;;;;;;;64.93;40.57;;;;;;;2.18;93.69;98946.06;5052828;28;20223;-78
2020/12/06 10:05:03;;;;;;;70.83;40.07;;;;;;;2.21;93.95;98942.78;5052842;28;20551;-78
2020/12/06 10:07:28;;;;;;;74.93;41.77;;;;;;;2.23;94.01;98937.91;5052678;28;20194;-77
2020/12/06 10:09:54;;;;;;;73.10;45.50;;;;;;;2.27;93.68;98937.00;5052603;28;20266;-78
2020/12/06 10:12:19;;;;;;;72.13;41.23;;;;;;;2.29;93.89;98944.78;5052844;28;20206;-78
2020/12/06 10:14:45;;;;;;;66.80;40.33;;;;;;;2.28;93.32;98933.22;5052705;28;20171;-77
2020/12/06 10:17:11;;;;;;;66.43;41.43;;;;;;;2.29;93.44;98936.72;5052469;28;20191;-77
2020/12/06 10:19:36;;;;;;;66.80;39.43;;;;;;;2.25;93.05;98923.03;5052738;28;20178;-78
2020/12/06 10:22:02;;;;;;;63.43;36.90;;;;;;;2.26;92.66;98921.13;5052422;28;20249;-77
2020/12/06 10:24:27;;;;;;;63.97;38.50;;;;;;;2.24;92.87;98932.22;5052315;28;20181;-78
2020/12/06 10:26:54;;;;;;;66.07;39.33;;;;;;;2.30;93.02;98933.72;5034281;28;20269;-78
2020/12/06 10:29:20;;;;;;;67.43;39.10;;;;;;;2.30;93.05;98927.53;5051842;28;20181;-78
2020/12/06 10:31:52;;;;;;;65.10;38.77;;;;;;;2.27;93.24;98923.53;5057194;28;20769;-78
2020/12/06 10:34:21;;;;;;;68.67;40.00;;;;;;;2.31;93.16;98915.66;5072084;28;20185;-77
2020/12/06 10:36:54;;;;;;;63.47;39.77;;;;;;;2.30;92.99;98922.94;5051962;28;20414;-78
2020/12/06 10:39:22;;;;;;;65.17;38.67;;;;;;;2.36;93.12;98924.47;5052190;28;20421;-78
2020/12/06 10:41:52;;;;;;;66.67;41.87;;;;;;;2.31;92.96;98929.94;5052478;28;20413;-76
2020/12/06 10:44:18;;;;;;;68.33;39.83;;;;;;;2.32;93.83;98920.78;5052484;28;20433;-76
2020/12/06 10:46:44;;;;;;;68.53;40.60;;;;;;;2.30;93.48;98914.06;5052151;28;20413;-77
2020/12/06 10:49:10;;;;;;;79.20;45.10;;;;;;;2.32;93.49;98915.38;5033665;28;20171;-77
2020/12/06 10:51:38;;;;;;;66.63;40.23;;;;;;;2.29;93.25;98910.56;5051970;28;20661;-78
2020/12/06 10:54:04;;;;;;;68.13;41.87;;;;;;;2.23;93.26;98906.38;5052201;28;20418;-77
2020/12/06 10:56:29;;;;;;;68.30;41.07;;;;;;;2.26;93.31;98895.00;5052003;28;20881;-77
2020/12/06 10:58:55;;;;;;;73.63;42.83;;;;;;;2.29;93.45;98901.69;5051808;28;20198;-77
2020/12/06 11:01:28;;;;;;;72.37;42.53;;;;;;;2.31;93.19;98924.53;5051935;28;20194;-76
2020/12/06 11:03:53;;;;;;;69.17;40.47;;;;;;;2.33;93.03;98905.41;5051603;28;20227;-77
2020/12/06 11:06:20;;;;;;;72.67;40.73;;;;;;;2.30;93.12;98892.50;5051631;28;20900;-77
2020/12/06 11:08:45;;;;;;;71.30;41.77;;;;;;;2.34;93.18;98886.25;5051625;28;20167;-77
2020/12/06 11:11:13;;;;;;;71.30;44.17;;;;;;;2.38;92.98;98887.25;5051976;28;20428;-79
2020/12/06 11:13:38;;;;;;;65.53;41.27;;;;;;;2.35;92.93;98887.84;5051944;28;20221;-77
2020/12/06 11:16:03;;;;;;;65.67;40.13;;;;;;;2.39;92.79;98890.75;5051394;28;20473;-78
2020/12/06 11:18:29;;;;;;;69.80;41.73;;;;;;;2.39;92.85;98882.66;5051050;28;20179;-77
2020/12/06 11:20:54;;;;;;;73.77;42.27;;;;;;;2.43;92.91;98883.66;5051389;28;20815;-76
2020/12/06 11:23:20;;;;;;;67.50;39.27;;;;;;;2.54;93.13;98882.38;5051282;28;20586;-76